createdAt,value
2017-11-12T00:00:30.301Z,5.30
2017-11-12T00:05:33.302Z,5.20
2017-11-12T00:10:35.912Z,5.30
2017-11-12T00:15:39.393Z,5.30
2017-11-12T00:20:42.914Z,5.40
2017-11-12T00:25:46.947Z,5.40
2017-11-12T00:30:49.550Z,5.30
2017-11-12T00:35:52.701Z,5.30
2017-11-12T00:40:55.479Z,5.30
2017-11-12T00:45:58.977Z,5.30
2017-11-12T00:51:01.799Z,5.40
2017-11-12T00:56:04.787Z,5.30
2017-11-12T01:01:08.197Z,5.20
2017-11-12T01:06:11.945Z,5.30
2017-11-12T01:11:14.531Z,5.30
2017-11-12T01:16:17.340Z,5.40
2017-11-12T01:21:19.941Z,5.40
2017-11-12T01:26:22.680Z,5.40
2017-11-12T01:31:25.306Z,5.40
2017-11-12T01:36:29.462Z,5.40
2017-11-12T01:41:32.124Z,5.40
2017-11-12T01:46:35.894Z,5.30
2017-11-12T01:51:38.534Z,5.30
2017-11-12T01:56:41.781Z,5.40
2017-11-12T02:01:45.312Z,5.20
2017-11-12T02:06:49.432Z,5.20
2017-11-12T02:11:52.872Z,5.10
2017-11-12T02:16:55.610Z,5.10
2017-11-12T02:21:58.303Z,5.10
2017-11-12T02:27:01.192Z,5.10
2017-11-12T02:32:03.936Z,5.10
2017-11-12T02:37:07.190Z,5.10
2017-11-12T02:42:09.993Z,5.10
2017-11-12T02:47:13.340Z,5.00
2017-11-12T02:52:16.123Z,5.00
2017-11-12T02:57:18.846Z,5.00
2017-11-12T03:02:21.598Z,5.00
2017-11-12T03:07:25.914Z,4.90
2017-11-12T03:12:28.499Z,4.90
2017-11-12T03:17:31.263Z,5.00
2017-11-12T03:22:33.854Z,5.00
2017-11-12T03:27:36.550Z,5.00
2017-11-12T03:32:39.352Z,5.00
2017-11-12T03:37:41.967Z,4.90
2017-11-12T03:42:44.657Z,4.90
2017-11-12T03:47:47.501Z,4.80
2017-11-12T03:52:50.106Z,4.70
2017-11-12T03:57:53.669Z,4.60
2017-11-12T04:02:57.064Z,4.40
2017-11-12T04:07:59.935Z,4.40
2017-11-12T04:13:02.556Z,4.30
2017-11-12T04:18:06.273Z,4.20
2017-11-12T04:23:09.659Z,4.10
2017-11-12T04:28:12.620Z,4.10
2017-11-12T04:33:16.024Z,4.00
2017-11-12T04:38:20.209Z,4.10
2017-11-12T04:43:22.818Z,4.10
2017-11-12T04:48:25.635Z,4.10
2017-11-12T04:53:28.251Z,4.10
2017-11-12T04:58:30.915Z,4.10
2017-11-12T05:03:33.543Z,3.90
2017-11-12T05:08:36.371Z,4.00
2017-11-12T05:13:39.741Z,4.00
2017-11-12T05:18:42.476Z,4.00
2017-11-12T05:23:45.090Z,4.00
2017-11-12T05:28:49.004Z,4.00
2017-11-12T05:33:52.456Z,3.90
2017-11-12T05:38:55.596Z,3.90
2017-11-12T05:43:58.208Z,3.90
2017-11-12T05:49:01.064Z,3.90
2017-11-12T05:54:03.768Z,3.80
2017-11-12T05:59:06.551Z,3.80
2017-11-12T06:04:09.926Z,3.80
2017-11-12T06:09:12.975Z,3.80
2017-11-12T06:14:15.658Z,3.90
2017-11-12T06:19:20.753Z,4.00
2017-11-12T06:24:23.399Z,4.00
2017-11-12T06:29:26.916Z,4.20
2017-11-12T06:34:29.488Z,4.20
2017-11-12T06:39:32.453Z,4.30
2017-11-12T06:44:35.039Z,4.30
2017-11-12T06:49:38.653Z,4.30
2017-11-12T06:54:41.267Z,4.20
2017-11-12T06:59:44.140Z,4.20
2017-11-12T07:04:46.769Z,4.20
2017-11-12T07:09:49.929Z,4.30
2017-11-12T07:14:52.605Z,4.20
2017-11-12T07:19:56.448Z,4.40
2017-11-12T07:24:59.011Z,4.40
2017-11-12T07:30:02.511Z,4.40
2017-11-12T07:35:05.896Z,4.50
2017-11-12T07:40:08.754Z,4.50
2017-11-12T07:45:12.137Z,4.60
2017-11-12T07:50:15.191Z,4.60
2017-11-12T07:55:18.536Z,4.70
2017-11-12T08:00:21.695Z,4.70
2017-11-12T08:05:24.303Z,4.80
2017-11-12T08:10:28.066Z,4.80
2017-11-12T08:15:30.653Z,4.70
2017-11-12T08:20:33.339Z,4.70
2017-11-12T08:25:36.693Z,4.90
2017-11-12T08:30:39.335Z,4.80
2017-11-12T08:35:41.974Z,5.00
2017-11-12T08:40:45.280Z,5.10
2017-11-12T08:45:47.933Z,5.00
2017-11-12T08:50:51.677Z,5.00
2017-11-12T08:55:55.056Z,5.00
2017-11-12T09:00:57.724Z,5.00
2017-11-12T09:06:00.351Z,5.00
2017-11-12T09:11:03.722Z,5.20
2017-11-12T09:16:07.143Z,5.30
2017-11-12T09:21:10.047Z,5.20
2017-11-12T09:26:12.683Z,5.30
2017-11-12T09:31:15.735Z,5.40
2017-11-12T09:36:19.107Z,5.50
2017-11-12T09:41:22.057Z,5.50
2017-11-12T09:46:25.422Z,5.60
2017-11-12T09:51:28.276Z,5.50
2017-11-12T09:56:30.899Z,5.50
2017-11-12T10:01:34.284Z,5.60
2017-11-12T10:06:38.445Z,5.80
2017-11-12T10:11:41.247Z,5.90
2017-11-12T10:16:43.868Z,5.90
2017-11-12T10:21:47.366Z,5.80
2017-11-12T10:26:49.976Z,5.70
2017-11-12T10:31:53.554Z,5.70
2017-11-12T10:36:56.140Z,5.80
2017-11-12T10:41:59.565Z,6.00
2017-11-12T10:47:02.197Z,6.20
2017-11-12T10:52:04.829Z,6.10
2017-11-12T10:57:07.444Z,6.10
2017-11-12T11:02:11.162Z,6.40
2017-11-12T11:07:13.791Z,6.40
2017-11-12T11:12:16.541Z,6.50
2017-11-12T11:17:19.156Z,6.90
2017-11-12T11:22:22.945Z,7.40
2017-11-12T11:27:25.644Z,7.80
2017-11-12T11:32:29.968Z,7.80
2017-11-12T11:37:33.490Z,7.50
2017-11-12T11:42:37.408Z,7.50
2017-11-12T11:47:40.023Z,7.50
2017-11-12T11:52:43.301Z,7.40
2017-11-12T11:57:45.939Z,7.40
2017-11-12T12:02:48.768Z,7.50
2017-11-12T12:07:51.547Z,7.10
2017-11-12T12:12:54.661Z,7.20
2017-11-12T12:17:57.281Z,7.00
2017-11-12T12:23:00.892Z,6.90
2017-11-12T12:28:03.509Z,6.70
2017-11-12T12:33:07.226Z,6.90
2017-11-12T12:38:09.871Z,6.70
2017-11-12T12:43:13.519Z,6.80
2017-11-12T12:48:17.062Z,6.80
2017-11-12T12:53:19.901Z,6.80
2017-11-12T12:58:22.487Z,6.90
2017-11-12T13:03:25.445Z,6.90
2017-11-12T13:08:28.930Z,7.00
2017-11-12T13:13:32.780Z,7.00
2017-11-12T13:18:36.172Z,7.10
2017-11-12T13:23:40.097Z,7.10
2017-11-12T13:28:42.831Z,7.10
2017-11-12T13:33:47.239Z,7.00
2017-11-12T13:38:49.879Z,7.00
2017-11-12T13:43:53.659Z,7.00
2017-11-12T13:48:56.336Z,7.00
2017-11-12T13:54:00.234Z,7.10
2017-11-12T13:59:02.982Z,7.00
2017-11-12T14:04:06.010Z,7.10
2017-11-12T14:09:09.460Z,7.10
2017-11-12T14:14:12.790Z,7.00
2017-11-12T14:19:15.470Z,7.00
2017-11-12T14:24:19.724Z,7.00
2017-11-12T14:29:22.389Z,6.90
2017-11-12T14:34:25.934Z,6.90
2017-11-12T14:39:28.585Z,7.00
2017-11-12T14:44:31.771Z,6.90
2017-11-12T14:49:34.378Z,6.90
2017-11-12T14:54:37.897Z,6.90
2017-11-12T14:59:40.674Z,6.90
2017-11-12T15:04:44.373Z,6.90
2017-11-12T15:09:47.092Z,6.90
2017-11-12T15:14:50.838Z,6.80
2017-11-12T15:19:53.505Z,6.70
2017-11-12T15:24:57.880Z,6.60
2017-11-12T15:30:00.686Z,6.60
2017-11-12T15:35:03.624Z,6.60
2017-11-12T15:40:06.248Z,6.50
2017-11-12T15:45:09.819Z,6.40
2017-11-12T15:50:12.818Z,6.40
2017-11-12T15:55:16.096Z,6.40
2017-11-12T16:00:19.620Z,6.30
2017-11-12T16:05:22.795Z,6.30
2017-11-12T16:10:25.442Z,6.40
2017-11-12T16:15:28.525Z,6.30
2017-11-12T16:20:31.974Z,6.30
2017-11-12T16:25:34.969Z,6.30
2017-11-12T16:30:37.660Z,6.20
2017-11-12T16:35:40.468Z,6.20
2017-11-12T16:40:43.112Z,6.20
2017-11-12T16:45:46.321Z,6.10
2017-11-12T16:50:48.926Z,6.10
2017-11-12T16:55:51.773Z,6.10
2017-11-12T17:00:55.404Z,6.00
2017-11-12T17:05:58.628Z,6.00
2017-11-12T17:11:01.271Z,6.00
2017-11-12T17:16:04.668Z,6.00
2017-11-12T17:21:07.306Z,6.00
2017-11-12T17:26:10.191Z,5.90
2017-11-12T17:31:12.825Z,5.90
2017-11-12T17:36:15.741Z,5.80
2017-11-12T17:41:18.418Z,5.80
2017-11-12T17:46:21.848Z,5.70
2017-11-12T17:51:25.243Z,5.70
2017-11-12T17:56:28.794Z,5.70
2017-11-12T18:01:31.463Z,5.70
2017-11-12T18:06:34.904Z,5.70
2017-11-12T18:11:38.330Z,5.70
2017-11-12T18:16:41.480Z,5.70
2017-11-12T18:21:44.242Z,5.80
2017-11-12T18:26:47.561Z,5.80
2017-11-12T18:31:50.369Z,5.80
2017-11-12T18:36:53.654Z,5.90
2017-11-12T18:41:57.139Z,5.90
2017-11-12T18:46:59.995Z,5.90
2017-11-12T18:52:02.823Z,5.90
2017-11-12T18:57:20.473Z,5.90
2017-11-12T19:02:28.814Z,6.00
2017-11-12T19:07:38.534Z,6.00
2017-11-12T19:12:41.948Z,6.00
2017-11-12T19:17:47.280Z,6.00
2017-11-12T19:23:04.852Z,5.90
2017-11-12T19:28:09.020Z,5.90
2017-11-12T19:33:11.759Z,5.90
2017-11-12T19:38:14.953Z,5.80
2017-11-12T19:43:17.607Z,6.00
2017-11-12T19:48:21.553Z,5.90
2017-11-12T19:53:24.229Z,5.90
2017-11-12T19:58:27.675Z,5.90
2017-11-12T20:03:30.508Z,5.90
2017-11-12T20:08:33.585Z,5.80
2017-11-12T20:13:36.190Z,5.70
2017-11-12T20:18:39.384Z,5.60
2017-11-12T20:23:42.763Z,5.50
2017-11-12T20:28:45.817Z,5.50
2017-11-12T20:33:48.522Z,5.50
2017-11-12T20:38:51.854Z,5.40
2017-11-12T20:43:54.494Z,5.40
2017-11-12T20:48:57.817Z,5.40
2017-11-12T20:54:00.494Z,5.20
2017-11-12T20:59:03.965Z,5.20
2017-11-12T21:04:08.073Z,5.20
2017-11-12T21:09:11.157Z,5.10
2017-11-12T21:14:13.794Z,5.20
2017-11-12T21:19:17.031Z,5.30
2017-11-12T21:24:34.578Z,5.20
2017-11-12T21:29:39.506Z,5.30
2017-11-12T21:34:44.519Z,5.40
2017-11-12T21:39:47.518Z,5.40
2017-11-12T21:44:50.284Z,5.40
2017-11-12T21:49:53.499Z,5.40
2017-11-12T21:54:56.200Z,5.40
2017-11-12T21:59:59.448Z,5.30
2017-11-12T22:05:02.110Z,5.20
2017-11-12T22:10:05.697Z,5.20
2017-11-12T22:15:09.050Z,5.20
2017-11-12T22:20:12.158Z,5.20
2017-11-12T22:25:14.827Z,5.10
2017-11-12T22:30:17.685Z,5.10
2017-11-12T22:35:20.484Z,5.00
2017-11-12T22:40:23.703Z,5.00
2017-11-12T22:45:26.310Z,5.00
2017-11-12T22:50:29.048Z,4.80
2017-11-12T22:55:31.700Z,4.80
2017-11-12T23:00:34.767Z,4.70
2017-11-12T23:05:38.193Z,4.70
2017-11-12T23:10:42.538Z,4.90
2017-11-12T23:15:45.241Z,4.90
2017-11-12T23:20:47.937Z,4.80
2017-11-12T23:25:51.289Z,4.80
2017-11-12T23:30:56.272Z,4.70
2017-11-12T23:35:59.726Z,4.80
2017-11-12T23:41:03.793Z,4.80
2017-11-12T23:46:06.560Z,4.70
2017-11-12T23:51:09.199Z,4.70
2017-11-12T23:56:12.724Z,4.60
